createdAt,value
2019-04-06T00:00:22.745Z,0
2019-04-06T00:01:37.125Z,0
2019-04-06T00:02:51.159Z,0
2019-04-06T00:04:05.358Z,0
2019-04-06T00:05:19.487Z,0
2019-04-06T00:06:33.824Z,0
2019-04-06T00:07:47.858Z,0
2019-04-06T00:09:02.041Z,0
2019-04-06T00:10:16.226Z,0
2019-04-06T00:11:30.430Z,0
2019-04-06T00:12:44.587Z,0
2019-04-06T00:13:58.820Z,0
2019-04-06T00:15:12.956Z,0
2019-04-06T00:16:27.136Z,0
2019-04-06T00:17:41.348Z,0
2019-04-06T00:18:55.487Z,0
2019-04-06T00:20:09.785Z,0
2019-04-06T00:21:23.858Z,0
2019-04-06T00:22:38.048Z,0
2019-04-06T00:23:52.496Z,0
2019-04-06T00:25:06.429Z,0
2019-04-06T00:26:20.596Z,0
2019-04-06T00:27:34.790Z,0
2019-04-06T00:28:48.960Z,0
2019-04-06T00:30:03.177Z,0
2019-04-06T00:31:17.326Z,0
2019-04-06T00:32:31.531Z,0
2019-04-06T00:33:45.749Z,0
2019-04-06T00:34:59.938Z,0
2019-04-06T00:36:14.118Z,0
2019-04-06T00:37:28.300Z,0
2019-04-06T00:38:42.459Z,0
2019-04-06T00:39:56.702Z,0
2019-04-06T00:41:13.388Z,0
2019-04-06T00:42:25.107Z,0
2019-04-06T00:43:39.205Z,0
2019-04-06T00:44:53.416Z,0
2019-04-06T00:46:07.569Z,0
2019-04-06T00:47:21.837Z,0
2019-04-06T00:48:36.046Z,0
2019-04-06T00:49:50.212Z,0
2019-04-06T00:51:04.323Z,0
2019-04-06T00:52:18.734Z,0
2019-04-06T00:53:33.995Z,0
2019-04-06T00:54:46.904Z,0
2019-04-06T00:56:01.088Z,0
2019-04-06T00:57:15.361Z,0
2019-04-06T00:58:29.467Z,0
2019-04-06T00:59:43.702Z,0
2019-04-06T01:00:57.838Z,0
2019-04-06T01:02:15.462Z,0
2019-04-06T01:03:26.549Z,0
2019-04-06T01:04:40.413Z,0
2019-04-06T01:05:54.690Z,0
2019-04-06T01:07:08.793Z,0
2019-04-06T01:08:22.994Z,0
2019-04-06T01:09:37.183Z,0
2019-04-06T01:10:51.396Z,0
2019-04-06T01:12:05.696Z,0
2019-04-06T01:13:19.757Z,0
2019-04-06T01:14:33.940Z,0
2019-04-06T01:15:48.136Z,0
2019-04-06T01:17:02.340Z,0
2019-04-06T01:18:16.607Z,0
2019-04-06T01:19:31.166Z,0
2019-04-06T01:20:45.015Z,0
2019-04-06T01:21:59.082Z,0
2019-04-06T01:23:13.273Z,0
2019-04-06T01:24:27.499Z,0
2019-04-06T01:25:42.396Z,0
2019-04-06T01:26:55.864Z,0
2019-04-06T01:28:10.339Z,0
2019-04-06T01:29:24.238Z,0
2019-04-06T01:30:38.486Z,0
2019-04-06T01:31:52.630Z,0
2019-04-06T01:33:06.816Z,0
2019-04-06T01:34:21.004Z,0
2019-04-06T01:35:35.374Z,0
2019-04-06T01:36:49.454Z,0
2019-04-06T01:38:03.695Z,0
2019-04-06T01:39:17.791Z,0
2019-04-06T01:40:31.957Z,0
2019-04-06T01:41:46.162Z,0
2019-04-06T01:43:00.361Z,0
2019-04-06T01:44:18.118Z,0
2019-04-06T01:45:33.775Z,0
2019-04-06T01:46:42.926Z,0
2019-04-06T01:47:57.200Z,0
2019-04-06T01:49:11.323Z,0
2019-04-06T01:50:25.538Z,0
2019-04-06T01:51:39.720Z,0
2019-04-06T01:52:53.917Z,0
2019-04-06T01:54:08.088Z,0
2019-04-06T01:55:22.277Z,0
2019-04-06T01:56:36.673Z,0
2019-04-06T01:57:50.668Z,0
2019-04-06T01:59:04.842Z,0
2019-04-06T02:00:19.020Z,0
2019-04-06T02:01:33.216Z,0
2019-04-06T02:02:47.423Z,0
2019-04-06T02:04:01.662Z,0
2019-04-06T02:05:18.067Z,0
2019-04-06T02:06:33.504Z,0
2019-04-06T02:07:44.179Z,0
2019-04-06T02:08:58.395Z,0
2019-04-06T02:10:12.643Z,0
2019-04-06T02:11:26.800Z,0
2019-04-06T02:12:40.950Z,0
2019-04-06T02:13:55.174Z,0
2019-04-06T02:15:09.489Z,0
2019-04-06T02:16:23.523Z,0
2019-04-06T02:17:37.770Z,0
2019-04-06T02:18:51.890Z,0
2019-04-06T02:20:06.124Z,0
2019-04-06T02:21:20.332Z,0
2019-04-06T02:22:34.446Z,0
2019-04-06T02:23:48.671Z,0
2019-04-06T02:25:02.949Z,0
2019-04-06T02:26:18.172Z,0
2019-04-06T02:27:33.508Z,0
2019-04-06T02:28:45.473Z,0
2019-04-06T02:29:59.657Z,0
2019-04-06T02:31:13.873Z,0
2019-04-06T02:32:28.021Z,0
2019-04-06T02:33:42.264Z,0
2019-04-06T02:34:56.479Z,0
2019-04-06T02:36:10.567Z,0
2019-04-06T02:37:24.797Z,0
2019-04-06T02:38:39.043Z,0
2019-04-06T02:39:53.148Z,0
2019-04-06T02:41:07.340Z,0
2019-04-06T02:42:21.680Z,0
2019-04-06T02:43:35.689Z,0
2019-04-06T02:44:49.870Z,0
2019-04-06T02:46:04.146Z,0
2019-04-06T02:47:18.298Z,0
2019-04-06T02:48:32.437Z,0
2019-04-06T02:49:46.642Z,0
2019-04-06T02:51:00.956Z,0
2019-04-06T02:52:14.992Z,0
2019-04-06T02:53:29.167Z,0
2019-04-06T02:54:43.483Z,0
2019-04-06T02:55:57.709Z,0
2019-04-06T02:57:11.753Z,0
2019-04-06T02:58:25.928Z,0
2019-04-06T02:59:40.222Z,0
2019-04-06T03:00:54.388Z,0
2019-04-06T03:02:08.491Z,0
2019-04-06T03:03:22.725Z,0
2019-04-06T03:04:37.053Z,0
2019-04-06T03:05:51.075Z,0
2019-04-06T03:07:05.306Z,0
2019-04-06T03:08:19.448Z,0
2019-04-06T03:09:33.705Z,0
2019-04-06T03:10:47.872Z,0
2019-04-06T03:12:02.045Z,0
2019-04-06T03:13:16.255Z,0
2019-04-06T03:14:30.367Z,0
2019-04-06T03:15:44.542Z,0
2019-04-06T03:16:58.738Z,0
2019-04-06T03:18:12.919Z,0
2019-04-06T03:19:27.125Z,0
2019-04-06T03:20:41.303Z,0
2019-04-06T03:21:55.581Z,0
2019-04-06T03:23:09.681Z,0
2019-04-06T03:24:23.878Z,0
2019-04-06T03:25:38.086Z,0
2019-04-06T03:26:52.356Z,0
2019-04-06T03:28:07.023Z,0
2019-04-06T03:29:20.685Z,0
2019-04-06T03:30:34.809Z,0
2019-04-06T03:31:49.106Z,0
2019-04-06T03:33:03.197Z,0
2019-04-06T03:34:17.412Z,0
2019-04-06T03:35:32.786Z,0
2019-04-06T03:36:45.735Z,0
2019-04-06T03:37:59.926Z,0
2019-04-06T03:39:14.118Z,0
2019-04-06T03:40:28.283Z,0
2019-04-06T03:41:42.502Z,0
2019-04-06T03:42:56.712Z,0
2019-04-06T03:44:10.873Z,0
2019-04-06T03:45:25.006Z,0
2019-04-06T03:46:39.249Z,0
2019-04-06T03:47:53.392Z,0
2019-04-06T03:49:07.672Z,0
2019-04-06T03:50:21.822Z,0
2019-04-06T03:51:35.925Z,0
2019-04-06T03:52:50.184Z,0
2019-04-06T03:54:04.285Z,0
2019-04-06T03:55:18.601Z,0
2019-04-06T03:56:32.640Z,0
2019-04-06T03:57:46.923Z,0
2019-04-06T03:59:01.194Z,0
2019-04-06T04:00:15.224Z,0
2019-04-06T04:01:29.438Z,0
2019-04-06T04:02:43.596Z,0
2019-04-06T04:03:57.807Z,0
2019-04-06T04:05:12.040Z,0
2019-04-06T04:06:26.191Z,0
2019-04-06T04:07:40.393Z,0
2019-04-06T04:08:54.676Z,0
2019-04-06T04:10:08.773Z,0
2019-04-06T04:11:23.184Z,0
2019-04-06T04:12:39.872Z,0
2019-04-06T04:13:52.612Z,0
2019-04-06T04:15:05.544Z,0
2019-04-06T04:16:19.722Z,0
2019-04-06T04:17:33.949Z,0
2019-04-06T04:18:48.088Z,0
2019-04-06T04:20:02.280Z,0
2019-04-06T04:21:16.550Z,0
2019-04-06T04:22:30.651Z,0
2019-04-06T04:23:44.829Z,0
2019-04-06T04:24:59.112Z,0
2019-04-06T04:26:13.203Z,0
2019-04-06T04:27:27.420Z,0
2019-04-06T04:28:41.704Z,0
2019-04-06T04:29:55.826Z,0
2019-04-06T04:31:09.951Z,0
2019-04-06T04:32:24.201Z,0
2019-04-06T04:33:38.446Z,0
2019-04-06T04:34:52.512Z,0
2019-04-06T04:36:06.765Z,0
2019-04-06T04:37:20.891Z,0
2019-04-06T04:38:35.071Z,0
2019-04-06T04:39:49.369Z,0
2019-04-06T04:41:03.580Z,0
2019-04-06T04:42:17.741Z,0
2019-04-06T04:43:31.969Z,0
2019-04-06T04:44:46.020Z,0
2019-04-06T04:46:00.220Z,0
2019-04-06T04:47:14.419Z,0
2019-04-06T04:48:28.604Z,0
2019-04-06T04:49:42.825Z,0
2019-04-06T04:50:56.988Z,0
2019-04-06T04:52:11.186Z,0
2019-04-06T04:53:25.861Z,0
2019-04-06T04:54:39.567Z,5
2019-04-06T04:55:53.837Z,5
2019-04-06T04:57:07.949Z,5
2019-04-06T04:58:22.122Z,5
2019-04-06T04:59:36.724Z,5
2019-04-06T05:00:50.681Z,5
2019-04-06T05:02:04.678Z,11
2019-04-06T05:03:18.980Z,16
2019-04-06T05:04:33.040Z,16
2019-04-06T05:07:01.628Z,22
2019-04-06T05:08:15.618Z,28
2019-04-06T05:09:29.799Z,28
2019-04-06T05:10:43.973Z,28
2019-04-06T05:11:59.229Z,28
2019-04-06T05:13:12.478Z,28
2019-04-06T05:14:26.842Z,33
2019-04-06T05:15:40.744Z,33
2019-04-06T05:16:54.889Z,39
2019-04-06T05:18:09.076Z,45
2019-04-06T05:19:23.259Z,56
2019-04-06T05:20:41.950Z,56
2019-04-06T05:21:51.799Z,67
2019-04-06T05:23:05.789Z,73
2019-04-06T05:24:20.067Z,84
2019-04-06T05:25:34.150Z,90
2019-04-06T05:26:48.372Z,95
2019-04-06T05:28:02.695Z,101
2019-04-06T05:29:16.723Z,106
2019-04-06T05:30:31.017Z,118
2019-04-06T05:31:45.096Z,123
2019-04-06T05:32:59.269Z,129
2019-04-06T05:34:13.468Z,135
2019-04-06T05:35:27.766Z,140
2019-04-06T05:37:56.026Z,157
2019-04-06T05:39:10.297Z,151
2019-04-06T05:40:24.409Z,157
2019-04-06T05:41:38.593Z,157
2019-04-06T05:42:52.825Z,174
2019-04-06T05:44:06.948Z,185
2019-04-06T05:45:21.231Z,196
2019-04-06T05:46:35.355Z,202
2019-04-06T05:47:49.489Z,213
2019-04-06T05:49:03.732Z,208
2019-04-06T05:50:17.856Z,202
2019-04-06T05:51:32.065Z,202
2019-04-06T05:52:46.202Z,213
2019-04-06T05:54:00.375Z,213
2019-04-06T05:55:14.547Z,219
2019-04-06T05:56:28.730Z,230
2019-04-06T05:57:42.962Z,236
2019-04-06T05:58:57.076Z,236
2019-04-06T06:00:11.293Z,230
2019-04-06T06:01:25.424Z,230
2019-04-06T06:02:42.069Z,230
2019-04-06T06:03:53.775Z,236
2019-04-06T06:05:07.984Z,230
2019-04-06T06:06:22.146Z,225
2019-04-06T06:07:36.330Z,219
2019-04-06T06:08:50.735Z,225
2019-04-06T06:10:04.703Z,219
2019-04-06T06:11:18.897Z,225
2019-04-06T06:12:33.041Z,225
2019-04-06T06:13:47.246Z,219
2019-04-06T06:15:01.425Z,225
2019-04-06T06:16:19.661Z,230
2019-04-06T06:17:29.786Z,236
2019-04-06T06:18:43.977Z,247
2019-04-06T06:19:58.183Z,258
2019-04-06T06:21:12.342Z,264
2019-04-06T06:22:26.492Z,275
2019-04-06T06:23:40.693Z,275
2019-04-06T06:24:54.895Z,275
2019-04-06T06:26:09.063Z,270
2019-04-06T06:27:23.226Z,286
2019-04-06T06:28:37.392Z,292
2019-04-06T06:29:51.590Z,315
2019-04-06T06:31:05.778Z,320
2019-04-06T06:32:20.007Z,331
2019-04-06T06:33:34.108Z,343
2019-04-06T06:34:48.316Z,348
2019-04-06T06:36:02.511Z,365
2019-04-06T06:37:16.729Z,376
2019-04-06T06:38:30.847Z,393
2019-04-06T06:39:45.052Z,382
2019-04-06T06:40:59.237Z,393
2019-04-06T06:42:13.397Z,416
2019-04-06T06:43:27.581Z,421
2019-04-06T06:44:41.754Z,421
2019-04-06T06:45:55.928Z,416
2019-04-06T06:47:10.183Z,410
2019-04-06T06:48:24.295Z,376
2019-04-06T06:49:38.570Z,360
2019-04-06T06:50:52.850Z,360
2019-04-06T06:52:06.812Z,405
2019-04-06T06:53:21.167Z,455
2019-04-06T06:54:35.222Z,483
2019-04-06T06:55:49.384Z,495
2019-04-06T06:57:03.523Z,506
2019-04-06T06:58:17.744Z,545
2019-04-06T06:59:31.855Z,551
2019-04-06T07:00:46.127Z,562
2019-04-06T07:02:00.210Z,573
2019-04-06T07:03:14.348Z,579
2019-04-06T07:04:28.536Z,585
2019-04-06T07:05:42.692Z,613
2019-04-06T07:06:57.203Z,607
2019-04-06T07:08:11.096Z,601
2019-04-06T07:09:25.207Z,630
2019-04-06T07:10:39.654Z,675
2019-04-06T07:11:53.866Z,708
2019-04-06T07:13:07.691Z,720
2019-04-06T07:14:21.866Z,748
2019-04-06T07:15:36.050Z,720
2019-04-06T07:16:50.648Z,725
2019-04-06T07:18:04.380Z,691
2019-04-06T07:19:18.526Z,742
2019-04-06T07:20:32.663Z,748
2019-04-06T07:21:46.833Z,714
2019-04-06T07:23:00.999Z,691
2019-04-06T07:24:15.152Z,703
2019-04-06T07:25:29.763Z,618
2019-04-06T07:26:43.474Z,607
2019-04-06T07:27:57.630Z,618
2019-04-06T07:29:11.817Z,618
2019-04-06T07:30:25.943Z,618
2019-04-06T07:31:40.287Z,607
2019-04-06T07:32:54.320Z,590
2019-04-06T07:34:08.581Z,483
2019-04-06T07:35:22.591Z,478
2019-04-06T07:36:36.986Z,478
2019-04-06T07:37:50.982Z,450
2019-04-06T07:39:05.073Z,455
2019-04-06T07:40:19.256Z,455
2019-04-06T07:41:33.428Z,450
2019-04-06T07:42:47.669Z,483
2019-04-06T07:44:01.735Z,444
2019-04-06T07:47:00.327Z,444
2019-04-06T07:47:44.229Z,450
2019-04-06T07:48:58.377Z,433
2019-04-06T07:50:12.680Z,433
2019-04-06T07:51:26.686Z,427
2019-04-06T07:52:40.929Z,427
2019-04-06T07:53:54.980Z,461
2019-04-06T07:55:09.265Z,506
2019-04-06T07:56:23.335Z,511
2019-04-06T07:57:37.502Z,489
2019-04-06T07:58:51.810Z,472
2019-04-06T08:00:05.808Z,511
2019-04-06T08:01:20.003Z,472
2019-04-06T08:02:34.088Z,472
2019-04-06T08:03:48.253Z,517
2019-04-06T08:05:03.836Z,534
2019-04-06T08:06:16.584Z,585
2019-04-06T08:07:30.734Z,596
2019-04-06T08:08:44.982Z,579
2019-04-06T08:09:59.067Z,568
2019-04-06T08:11:13.206Z,618
2019-04-06T08:12:27.460Z,635
2019-04-06T08:13:41.545Z,585
2019-04-06T08:14:55.729Z,635
2019-04-06T08:16:09.871Z,646
2019-04-06T08:17:24.024Z,686
2019-04-06T08:18:38.229Z,663
2019-04-06T08:19:52.442Z,652
2019-04-06T08:21:06.563Z,686
2019-04-06T08:22:20.607Z,697
2019-04-06T08:23:34.731Z,686
2019-04-06T08:24:48.869Z,675
2019-04-06T08:26:03.044Z,697
2019-04-06T08:27:17.162Z,736
2019-04-06T08:28:31.336Z,793
2019-04-06T08:29:45.464Z,815
2019-04-06T08:30:59.663Z,810
2019-04-06T08:32:13.787Z,832
2019-04-06T08:33:27.854Z,821
2019-04-06T08:34:41.995Z,838
2019-04-06T08:35:56.127Z,860
2019-04-06T08:37:10.269Z,945
2019-04-06T08:38:24.406Z,1012
2019-04-06T08:39:38.583Z,1012
2019-04-06T08:40:52.676Z,950
2019-04-06T08:42:06.798Z,877
2019-04-06T08:43:20.949Z,911
2019-04-06T08:44:35.087Z,1035
2019-04-06T08:45:49.384Z,1164
2019-04-06T08:47:03.373Z,1226
2019-04-06T08:48:17.554Z,1136
2019-04-06T08:49:31.650Z,1186
2019-04-06T08:50:45.733Z,1243
2019-04-06T08:51:59.832Z,1164
2019-04-06T08:53:13.948Z,1136
2019-04-06T08:54:28.077Z,1130
2019-04-06T08:55:42.192Z,1428
2019-04-06T08:56:59.362Z,1299
2019-04-06T08:58:12.687Z,1175
2019-04-06T08:59:24.640Z,1265
2019-04-06T09:00:38.697Z,1141
2019-04-06T09:01:52.973Z,1383
2019-04-06T09:03:06.959Z,1350
2019-04-06T09:04:21.042Z,1254
2019-04-06T09:05:35.239Z,1575
2019-04-06T09:06:49.340Z,1243
2019-04-06T09:08:03.409Z,1653
2019-04-06T09:09:17.644Z,1485
2019-04-06T09:10:31.621Z,1895
2019-04-06T09:11:45.716Z,1856
2019-04-06T09:12:59.838Z,1884
2019-04-06T09:14:13.999Z,1839
2019-04-06T09:15:28.023Z,1648
2019-04-06T09:16:42.126Z,1147
2019-04-06T09:17:56.263Z,1260
2019-04-06T09:19:10.333Z,1299
2019-04-06T09:20:24.456Z,1237
2019-04-06T09:21:38.585Z,1653
2019-04-06T09:24:06.779Z,1445
2019-04-06T09:25:20.848Z,2120
2019-04-06T09:26:34.932Z,2255
2019-04-06T09:27:49.037Z,2373
2019-04-06T09:29:03.205Z,2345
2019-04-06T09:30:17.305Z,2255
2019-04-06T09:31:31.410Z,2154
2019-04-06T09:32:45.395Z,2328
2019-04-06T09:33:59.565Z,2289
2019-04-06T09:35:13.729Z,2176
2019-04-06T09:36:27.661Z,2160
2019-04-06T09:37:41.730Z,2041
2019-04-06T09:38:55.784Z,2109
2019-04-06T09:40:09.893Z,2047
2019-04-06T09:41:23.982Z,1861
2019-04-06T09:42:38.051Z,984
2019-04-06T09:43:52.163Z,1068
2019-04-06T09:45:06.287Z,1091
2019-04-06T09:46:20.408Z,1130
2019-04-06T09:47:34.456Z,1434
2019-04-06T09:48:48.564Z,1878
2019-04-06T09:50:02.679Z,2064
2019-04-06T09:51:16.813Z,2109
2019-04-06T09:52:30.967Z,2160
2019-04-06T09:53:44.985Z,2171
2019-04-06T09:54:59.088Z,2109
2019-04-06T09:56:13.183Z,2115
2019-04-06T09:57:27.283Z,2216
2019-04-06T09:58:41.417Z,2154
2019-04-06T09:59:55.472Z,2193
2019-04-06T10:01:09.575Z,2137
2019-04-06T10:02:23.646Z,1974
2019-04-06T10:03:37.736Z,2053
2019-04-06T10:04:51.913Z,2075
2019-04-06T10:06:05.929Z,1451
2019-04-06T10:07:21.990Z,2261
2019-04-06T10:08:34.820Z,2356
2019-04-06T10:09:48.223Z,2098
2019-04-06T10:11:02.611Z,1991
2019-04-06T10:12:16.624Z,2053
2019-04-06T10:13:30.618Z,2126
2019-04-06T10:14:44.646Z,2289
2019-04-06T10:15:59.059Z,2401
2019-04-06T10:17:12.869Z,2373
2019-04-06T10:18:26.864Z,2244
2019-04-06T10:19:40.974Z,2317
2019-04-06T10:20:55.114Z,2390
2019-04-06T10:22:09.173Z,2593
2019-04-06T10:23:23.226Z,2525
2019-04-06T10:24:37.290Z,2503
2019-04-06T10:25:51.558Z,2581
2019-04-06T10:27:05.472Z,1698
2019-04-06T10:28:19.552Z,1575
2019-04-06T10:29:33.626Z,1473
2019-04-06T10:30:47.722Z,1856
2019-04-06T10:32:01.797Z,2767
2019-04-06T10:33:15.898Z,2925
2019-04-06T10:34:30.065Z,2553
2019-04-06T10:35:44.151Z,2565
2019-04-06T10:36:58.208Z,1996
2019-04-06T10:38:12.189Z,2745
2019-04-06T10:39:26.274Z,1704
2019-04-06T10:40:40.452Z,2705
2019-04-06T10:41:54.533Z,2739
2019-04-06T10:43:08.484Z,2829
2019-04-06T10:44:22.545Z,2953
2019-04-06T10:45:36.631Z,2829
2019-04-06T10:46:50.728Z,2795
2019-04-06T10:48:04.811Z,2801
2019-04-06T10:49:18.801Z,2812
2019-04-06T10:50:32.881Z,2823
2019-04-06T10:51:48.641Z,2778
2019-04-06T10:53:01.110Z,2767
2019-04-06T10:54:15.055Z,2660
2019-04-06T10:55:29.189Z,2739
2019-04-06T10:56:43.184Z,2745
2019-04-06T10:57:57.308Z,2688
2019-04-06T10:59:11.390Z,2778
2019-04-06T11:00:25.422Z,2930
2019-04-06T11:01:39.579Z,2531
2019-04-06T11:02:53.525Z,1670
2019-04-06T11:04:07.771Z,2745
2019-04-06T11:05:21.811Z,3099
2019-04-06T11:06:35.889Z,2885
2019-04-06T11:07:49.709Z,3155
2019-04-06T11:09:03.813Z,2958
2019-04-06T11:10:17.891Z,3138
2019-04-06T11:11:31.899Z,2986
2019-04-06T11:12:45.937Z,3166
2019-04-06T11:14:01.424Z,3240
2019-04-06T11:15:14.050Z,3346
2019-04-06T11:16:28.192Z,3425
2019-04-06T11:17:42.184Z,3442
2019-04-06T11:18:56.319Z,3301
2019-04-06T11:20:10.351Z,2863
2019-04-06T11:21:24.422Z,2165
2019-04-06T11:22:38.456Z,2283
2019-04-06T11:23:52.553Z,1338
2019-04-06T11:25:06.584Z,1243
2019-04-06T11:26:20.576Z,1372
2019-04-06T11:28:48.839Z,1423
2019-04-06T11:30:02.977Z,1513
2019-04-06T11:31:16.948Z,1760
2019-04-06T11:32:30.980Z,2098
2019-04-06T11:33:45.114Z,1490
2019-04-06T11:34:59.298Z,1816
2019-04-06T11:36:13.336Z,2013
2019-04-06T11:37:27.345Z,1310
2019-04-06T11:38:41.435Z,1085
2019-04-06T11:39:55.650Z,1068
2019-04-06T11:41:09.741Z,1153
2019-04-06T11:42:23.840Z,1175
2019-04-06T11:43:38.252Z,1113
2019-04-06T11:44:52.050Z,1215
2019-04-06T11:46:06.072Z,1254
2019-04-06T11:47:20.280Z,1254
2019-04-06T11:48:34.295Z,1226
2019-04-06T11:49:48.399Z,1231
2019-04-06T11:51:02.630Z,1507
2019-04-06T11:52:16.615Z,1873
2019-04-06T11:53:30.867Z,2255
2019-04-06T11:54:44.951Z,3172
2019-04-06T11:55:59.046Z,3285
2019-04-06T11:57:13.147Z,2795
2019-04-06T11:58:27.101Z,3256
2019-04-06T11:59:41.221Z,3301
2019-04-06T12:00:55.370Z,2992
2019-04-06T12:02:09.313Z,2716
2019-04-06T12:03:23.382Z,2570
2019-04-06T12:04:37.438Z,2700
2019-04-06T12:05:51.560Z,2840
2019-04-06T12:07:10.481Z,3324
2019-04-06T12:08:19.658Z,3251
2019-04-06T12:09:33.896Z,3003
2019-04-06T12:10:49.293Z,2075
2019-04-06T12:12:04.026Z,2593
2019-04-06T12:13:15.938Z,3020
2019-04-06T12:14:30.042Z,2328
2019-04-06T12:15:44.168Z,1614
2019-04-06T12:16:58.183Z,1659
2019-04-06T12:18:12.213Z,1884
2019-04-06T12:19:26.418Z,1901
2019-04-06T12:20:40.454Z,2058
2019-04-06T12:21:54.436Z,3003
2019-04-06T12:23:08.712Z,3133
2019-04-06T12:24:22.594Z,3425
2019-04-06T12:25:36.904Z,3442
2019-04-06T12:26:50.889Z,3628
2019-04-06T12:28:04.945Z,3504
2019-04-06T12:29:18.879Z,2610
2019-04-06T12:30:33.049Z,3099
2019-04-06T12:31:46.980Z,3217
2019-04-06T12:33:01.199Z,3110
2019-04-06T12:34:15.092Z,3082
2019-04-06T12:35:29.163Z,3183
2019-04-06T12:36:43.592Z,3144
2019-04-06T12:37:57.293Z,1890
2019-04-06T12:39:11.385Z,3251
2019-04-06T12:40:25.448Z,3330
2019-04-06T12:41:39.625Z,3200
2019-04-06T12:42:53.680Z,3183
2019-04-06T12:44:07.689Z,3279
2019-04-06T12:45:21.837Z,3307
2019-04-06T12:46:35.833Z,3324
2019-04-06T12:47:49.892Z,2705
2019-04-06T12:49:03.972Z,3386
2019-04-06T12:50:18.097Z,3335
2019-04-06T12:51:32.117Z,3240
2019-04-06T12:52:46.282Z,3386
2019-04-06T12:55:14.316Z,3060
2019-04-06T12:56:28.503Z,2655
2019-04-06T12:57:42.459Z,2581
2019-04-06T12:58:56.716Z,3071
2019-04-06T13:00:10.758Z,2908
2019-04-06T13:01:24.707Z,3048
2019-04-06T13:02:38.800Z,3228
2019-04-06T13:03:52.884Z,3313
2019-04-06T13:05:07.036Z,1833
2019-04-06T13:06:21.007Z,2115
2019-04-06T13:07:35.110Z,3234
2019-04-06T13:08:49.178Z,3391
2019-04-06T13:10:03.277Z,3346
2019-04-06T13:11:17.330Z,3105
2019-04-06T13:12:31.393Z,3150
2019-04-06T13:13:45.551Z,2626
2019-04-06T13:14:59.527Z,2823
2019-04-06T13:16:13.636Z,2885
2019-04-06T13:17:27.712Z,2086
2019-04-06T13:18:41.789Z,2340
2019-04-06T13:19:55.890Z,2036
2019-04-06T13:21:09.995Z,1366
2019-04-06T13:22:24.090Z,2514
2019-04-06T13:23:38.176Z,2655
2019-04-06T13:24:53.427Z,2430
2019-04-06T13:26:06.485Z,2604
2019-04-06T13:27:20.508Z,2632
2019-04-06T13:28:34.604Z,2559
2019-04-06T13:29:48.753Z,2525
2019-04-06T13:31:02.849Z,2441
2019-04-06T13:32:16.890Z,2615
2019-04-06T13:33:30.994Z,2694
2019-04-06T13:34:45.124Z,2581
2019-04-06T13:35:59.170Z,2548
2019-04-06T13:37:13.275Z,2711
2019-04-06T13:38:27.375Z,2683
2019-04-06T13:39:41.476Z,2683
2019-04-06T13:40:55.536Z,2716
2019-04-06T13:42:09.637Z,2745
2019-04-06T13:43:23.730Z,2683
2019-04-06T13:44:37.821Z,2784
2019-04-06T13:45:53.769Z,2745
2019-04-06T13:47:05.997Z,2542
2019-04-06T13:48:20.088Z,2446
2019-04-06T13:49:34.175Z,2514
2019-04-06T13:50:48.337Z,2553
2019-04-06T13:52:02.321Z,2340
2019-04-06T13:53:16.397Z,2508
2019-04-06T13:54:30.572Z,2491
2019-04-06T13:55:48.952Z,2508
2019-04-06T13:56:58.667Z,2649
2019-04-06T13:58:12.814Z,2604
2019-04-06T14:00:40.960Z,2621
2019-04-06T14:01:55.037Z,2469
2019-04-06T14:03:09.121Z,1822
2019-04-06T14:04:23.196Z,1198
2019-04-06T14:05:37.264Z,1035
2019-04-06T14:06:53.030Z,945
2019-04-06T14:08:05.497Z,1074
2019-04-06T14:09:19.623Z,1316
2019-04-06T14:10:33.734Z,1035
2019-04-06T14:11:47.747Z,967
2019-04-06T14:13:01.868Z,900
2019-04-06T14:14:15.984Z,933
2019-04-06T14:15:30.117Z,1046
2019-04-06T14:16:44.253Z,1141
2019-04-06T14:17:58.330Z,1276
2019-04-06T14:19:12.553Z,1119
2019-04-06T14:20:26.566Z,945
2019-04-06T14:21:40.886Z,1023
2019-04-06T14:22:54.829Z,1569
2019-04-06T14:24:08.913Z,1963
2019-04-06T14:25:23.238Z,1923
2019-04-06T14:26:37.146Z,2221
2019-04-06T14:27:51.382Z,2368
2019-04-06T14:29:05.433Z,2261
2019-04-06T14:30:19.489Z,2098
2019-04-06T14:31:33.683Z,2165
2019-04-06T14:32:47.683Z,2182
2019-04-06T14:34:01.775Z,2160
2019-04-06T14:35:15.873Z,2131
2019-04-06T14:36:29.996Z,2047
2019-04-06T14:37:44.309Z,2064
2019-04-06T14:38:58.177Z,1980
2019-04-06T14:40:12.259Z,2041
2019-04-06T14:41:26.400Z,1845
2019-04-06T14:42:40.440Z,1901
2019-04-06T14:43:54.636Z,1850
2019-04-06T14:45:08.590Z,1957
2019-04-06T14:46:22.760Z,1833
2019-04-06T14:47:36.804Z,1884
2019-04-06T14:48:50.974Z,1687
2019-04-06T14:50:05.055Z,1732
2019-04-06T14:51:19.129Z,1428
2019-04-06T14:52:33.167Z,1366
2019-04-06T14:53:47.278Z,1569
2019-04-06T14:55:01.367Z,1951
2019-04-06T14:56:15.455Z,1873
2019-04-06T14:57:29.565Z,1693
2019-04-06T14:58:44.065Z,1783
2019-04-06T14:59:57.741Z,1288
2019-04-06T15:01:11.946Z,967
2019-04-06T15:02:25.938Z,990
2019-04-06T15:03:40.045Z,1355
2019-04-06T15:04:54.133Z,1423
2019-04-06T15:06:08.261Z,1338
2019-04-06T15:07:22.351Z,1260
2019-04-06T15:08:36.588Z,1310
2019-04-06T15:09:50.568Z,1158
2019-04-06T15:11:04.753Z,961
2019-04-06T15:12:18.870Z,922
2019-04-06T15:13:34.537Z,1186
2019-04-06T15:14:46.962Z,1237
2019-04-06T15:16:01.168Z,1220
2019-04-06T15:17:15.166Z,1428
2019-04-06T15:18:29.284Z,1344
2019-04-06T15:19:43.577Z,1198
2019-04-06T15:20:57.544Z,1085
2019-04-06T15:22:11.581Z,883
2019-04-06T15:23:25.745Z,1136
2019-04-06T15:24:39.809Z,1040
2019-04-06T15:25:53.936Z,933
2019-04-06T15:27:11.179Z,1271
2019-04-06T15:28:22.187Z,1406
2019-04-06T15:29:36.330Z,1479
2019-04-06T15:30:50.368Z,1485
2019-04-06T15:32:04.491Z,1496
2019-04-06T15:33:19.102Z,1440
2019-04-06T15:35:46.695Z,1479
2019-04-06T15:37:01.287Z,1473
2019-04-06T15:38:15.022Z,1473
2019-04-06T15:39:31.598Z,1490
2019-04-06T15:40:43.743Z,1440
2019-04-06T15:41:57.196Z,1462
2019-04-06T15:43:11.277Z,1473
2019-04-06T15:44:25.380Z,1456
2019-04-06T15:45:40.401Z,1456
2019-04-06T15:46:53.584Z,1423
2019-04-06T15:48:07.677Z,1299
2019-04-06T15:49:22.402Z,1147
2019-04-06T15:50:35.879Z,1215
2019-04-06T15:51:50.503Z,1288
2019-04-06T15:53:04.331Z,1248
2019-04-06T15:54:18.278Z,1192
2019-04-06T15:55:32.266Z,1243
2019-04-06T15:56:46.370Z,1175
2019-04-06T15:58:00.585Z,1096
2019-04-06T15:59:14.574Z,1080
2019-04-06T16:00:32.485Z,973
2019-04-06T16:01:45.762Z,877
2019-04-06T16:02:58.959Z,883
2019-04-06T16:04:10.968Z,922
2019-04-06T16:05:25.347Z,956
2019-04-06T16:06:39.194Z,984
2019-04-06T16:07:53.485Z,956
2019-04-06T16:09:07.330Z,961
2019-04-06T16:10:21.521Z,950
2019-04-06T16:11:35.533Z,916
2019-04-06T16:12:49.623Z,815
2019-04-06T16:14:03.743Z,776
2019-04-06T16:15:17.847Z,765
2019-04-06T16:16:31.957Z,759
2019-04-06T16:17:46.087Z,748
2019-04-06T16:19:00.276Z,742
2019-04-06T16:20:18.427Z,736
2019-04-06T16:21:28.523Z,731
2019-04-06T16:22:42.546Z,725
2019-04-06T16:23:56.643Z,742
2019-04-06T16:25:10.705Z,742
2019-04-06T16:26:24.903Z,731
2019-04-06T16:27:38.927Z,759
2019-04-06T16:28:53.016Z,815
2019-04-06T16:30:07.132Z,821
2019-04-06T16:31:21.577Z,810
2019-04-06T16:32:35.375Z,793
2019-04-06T16:33:49.410Z,714
2019-04-06T16:35:03.521Z,720
2019-04-06T16:36:17.664Z,703
2019-04-06T16:37:31.711Z,680
2019-04-06T16:38:45.836Z,686
2019-04-06T16:39:59.926Z,652
2019-04-06T16:41:14.008Z,607
2019-04-06T16:42:28.171Z,573
2019-04-06T16:43:43.793Z,545
2019-04-06T16:44:56.464Z,551
2019-04-06T16:46:10.495Z,534
2019-04-06T16:47:24.526Z,500
2019-04-06T16:48:38.629Z,466
2019-04-06T16:49:52.731Z,444
2019-04-06T16:51:06.931Z,433
2019-04-06T16:52:21.014Z,410
2019-04-06T16:53:35.039Z,393
2019-04-06T16:54:49.208Z,382
2019-04-06T16:56:03.321Z,365
2019-04-06T16:57:17.432Z,360
2019-04-06T16:58:31.507Z,354
2019-04-06T16:59:45.655Z,348
2019-04-06T17:00:59.749Z,337
2019-04-06T17:02:13.881Z,326
2019-04-06T17:03:28.283Z,309
2019-04-06T17:04:42.150Z,298
2019-04-06T17:05:56.243Z,281
2019-04-06T17:07:10.367Z,270
2019-04-06T17:08:24.471Z,253
2019-04-06T17:09:38.615Z,241
2019-04-06T17:10:55.477Z,230
2019-04-06T17:12:06.992Z,230
2019-04-06T17:13:21.008Z,225
2019-04-06T17:14:35.351Z,219
2019-04-06T17:15:49.351Z,213
2019-04-06T17:17:03.484Z,208